Time;durP1;ratioP1;P1;durP2;ratioP2;P2;SDS_P1;SDS_P2;PMS_P1;PMS_P2;Temp;Humidity;BMP_temperature;BMP_pressure;BME280_temperature;BME280_humidity;BME280_pressure;Samples;Min_cycle;Max_cycle;Signal;HPM_P1;HPM_P2
2022/11/09 00:02:21;;;;;;;7.60;4.43;;;15.30;99.90;;;;;;5013470;28;20908;-78
2022/11/09 00:04:48;;;;;;;5.32;4.25;;;15.30;99.90;;;;;;5013715;28;20477;-78
2022/11/09 00:07:15;;;;;;;6.47;4.15;;;15.40;99.90;;;;;;5013697;28;20238;-78
2022/11/09 00:09:41;;;;;;;8.90;5.37;;;15.20;99.90;;;;;;5011877;28;20232;-77
2022/11/09 00:12:10;;;;;;;8.60;5.70;;;14.90;99.90;;;;;;5015913;28;20460;-76
2022/11/09 00:14:37;;;;;;;8.73;7.10;;;14.90;99.90;;;;;;5024222;28;20361;-79
2022/11/09 00:17:04;;;;;;;6.20;3.70;;;14.90;99.90;;;;;;5024109;28;20207;-78
2022/11/09 00:19:31;;;;;;;11.35;7.53;;;14.90;99.90;;;;;;5030514;28;20743;-78
2022/11/09 00:21:58;;;;;;;9.95;4.95;;;14.70;99.90;;;;;;5028595;28;20221;-77
2022/11/09 00:24:25;;;;;;;9.32;4.30;;;14.60;99.90;;;;;;5028295;28;20231;-77
2022/11/09 00:26:51;;;;;;;3.85;2.78;;;14.60;99.90;;;;;;5034226;28;20231;-78
2022/11/09 00:29:19;;;;;;;4.72;2.30;;;14.60;99.90;;;;;;5035790;28;20225;-77
2022/11/09 00:31:47;;;;;;;4.10;2.67;;;14.60;99.90;;;;;;5032746;28;20275;-78
2022/11/09 00:34:14;;;;;;;5.75;4.53;;;14.50;99.90;;;;;;5036965;28;20261;-77
2022/11/09 00:36:41;;;;;;;5.93;3.73;;;14.60;99.90;;;;;;5031492;28;20269;-77
2022/11/09 00:39:08;;;;;;;6.65;5.15;;;14.60;99.90;;;;;;5031604;28;20448;-78
2022/11/09 00:41:35;;;;;;;5.95;4.50;;;14.60;99.90;;;;;;5047889;28;20210;-78
2022/11/09 00:44:02;;;;;;;6.15;4.38;;;14.40;99.90;;;;;;5038988;28;20241;-77
2022/11/09 00:46:30;;;;;;;6.43;5.25;;;14.40;99.90;;;;;;5039414;28;20189;-79
2022/11/09 00:48:57;;;;;;;6.00;4.30;;;14.30;99.90;;;;;;5037861;28;20221;-80
2022/11/09 00:51:24;;;;;;;6.20;5.57;;;14.30;99.90;;;;;;5047640;28;20230;-78
2022/11/09 00:53:53;;;;;;;6.20;3.95;;;14.20;99.90;;;;;;5037757;28;20197;-77
2022/11/09 00:56:21;;;;;;;4.38;3.65;;;14.20;99.90;;;;;;5051663;28;20199;-77
2022/11/09 00:58:48;;;;;;;6.18;3.15;;;14.20;99.90;;;;;;5033226;28;20647;-77
2022/11/09 01:01:16;;;;;;;4.95;3.47;;;14.20;99.90;;;;;;5013215;28;20587;-77
2022/11/09 01:03:45;;;;;;;3.17;2.88;;;14.20;99.90;;;;;;5016779;28;20231;-79
2022/11/09 01:06:15;;;;;;;8.80;5.32;;;14.30;99.90;;;;;;5009261;28;20300;-78
2022/11/09 01:08:42;;;;;;;5.47;4.70;;;14.10;99.90;;;;;;5016713;28;20688;-77
2022/11/09 01:11:10;;;;;;;7.15;3.65;;;14.00;99.90;;;;;;5016727;28;20216;-77
2022/11/09 01:13:38;;;;;;;6.70;2.95;;;14.10;99.90;;;;;;5015997;28;20221;-77
2022/11/09 01:16:07;;;;;;;7.25;3.50;;;14.00;99.90;;;;;;5012339;28;20285;-77
2022/11/09 01:18:33;;;;;;;4.18;2.65;;;14.00;99.90;;;;;;5004408;28;20577;-78
2022/11/09 01:21:03;;;;;;;6.20;3.42;;;14.00;99.90;;;;;;5016532;28;20307;-77
2022/11/09 01:23:30;;;;;;;4.07;2.60;;;14.00;99.90;;;;;;5022372;28;20225;-77
2022/11/09 01:26:00;;;;;;;3.95;2.58;;;14.00;99.90;;;;;;5018185;28;20212;-78
2022/11/09 01:28:27;;;;;;;4.63;2.55;;;14.10;99.90;;;;;;5017429;28;20550;-79
2022/11/09 01:30:54;;;;;;;6.68;2.65;;;14.30;99.90;;;;;;5015655;28;20205;-78
2022/11/09 01:33:21;;;;;;;5.90;3.35;;;14.20;99.90;;;;;;5006012;28;20341;-78
2022/11/09 01:35:48;;;;;;;4.90;3.20;;;14.20;99.90;;;;;;5006282;28;20212;-78
2022/11/09 01:38:16;;;;;;;6.20;2.35;;;14.20;99.90;;;;;;5015973;28;20207;-79
2022/11/09 01:40:43;;;;;;;4.40;2.30;;;14.30;99.90;;;;;;5014569;28;20220;-78
2022/11/09 01:43:16;;;;;;;5.25;2.65;;;14.30;99.90;;;;;;5010148;28;20676;-78
2022/11/09 01:45:44;;;;;;;8.95;2.45;;;14.20;99.90;;;;;;5017696;28;20243;-78
2022/11/09 01:48:14;;;;;;;4.07;2.50;;;14.30;99.90;;;;;;5008964;28;20681;-77
2022/11/09 01:50:44;;;;;;;6.47;3.05;;;14.30;99.90;;;;;;5015187;28;20248;-79
2022/11/09 01:53:15;;;;;;;4.97;2.45;;;14.20;99.90;;;;;;5016366;28;20228;-78
2022/11/09 01:55:46;;;;;;;4.32;2.50;;;14.20;99.90;;;;;;5013918;28;20202;-77
2022/11/09 01:58:17;;;;;;;3.75;2.33;;;14.30;99.90;;;;;;5015427;28;20223;-78
2022/11/09 02:00:48;;;;;;;14.57;3.80;;;14.40;99.90;;;;;;5013155;28;20207;-77
2022/11/09 02:03:21;;;;;;;4.10;3.25;;;14.40;99.90;;;;;;5011445;28;20228;-78
2022/11/09 02:05:49;;;;;;;3.45;2.72;;;14.40;99.90;;;;;;5013602;28;20212;-78
2022/11/09 02:08:19;;;;;;;3.15;2.22;;;14.30;99.90;;;;;;5020739;28;20200;-77
2022/11/09 02:11:08;;;;;;;3.73;2.33;;;14.40;99.90;;;;;;5011469;28;20294;-77
2022/11/09 02:13:37;;;;;;;12.35;3.33;;;14.50;99.90;;;;;;5011201;28;20544;-77
2022/11/09 02:16:05;;;;;;;31.83;5.50;;;14.40;99.90;;;;;;5003410;28;20207;-77
2022/11/09 02:18:33;;;;;;;5.57;3.08;;;14.40;99.90;;;;;;5015505;28;20730;-77
2022/11/09 02:21:02;;;;;;;7.00;3.17;;;14.40;99.90;;;;;;5017123;28;20702;-79
2022/11/09 02:23:30;;;;;;;3.42;2.30;;;14.40;99.90;;;;;;5009276;28;20232;-77
2022/11/09 02:26:01;;;;;;;5.13;2.65;;;14.40;99.90;;;;;;5015458;28;20259;-76
2022/11/09 02:28:28;;;;;;;5.65;2.83;;;14.40;99.90;;;;;;5011494;28;20272;-77
2022/11/09 02:30:57;;;;;;;3.25;2.28;;;14.40;99.90;;;;;;5014985;28;20661;-78
2022/11/09 02:33:24;;;;;;;4.47;1.98;;;14.40;99.90;;;;;;5014844;28;20236;-77
2022/11/09 02:35:51;;;;;;;3.28;1.90;;;14.40;99.90;;;;;;5015453;28;20212;-77
2022/11/09 02:38:19;;;;;;;3.28;2.45;;;14.30;99.90;;;;;;5014899;28;20210;-77
2022/11/09 02:40:49;;;;;;;3.28;2.65;;;14.20;99.90;;;;;;5015032;28;20658;-78
2022/11/09 02:43:16;;;;;;;3.92;2.63;;;14.30;99.90;;;;;;5013832;28;20295;-78
2022/11/09 02:45:43;;;;;;;3.67;2.10;;;14.30;99.90;;;;;;5014620;28;20284;-78
2022/11/09 02:48:10;;;;;;;3.28;2.50;;;14.30;99.90;;;;;;5014082;28;20705;-77
2022/11/09 02:50:37;;;;;;;6.15;2.45;;;14.20;99.90;;;;;;5013410;28;20235;-77
2022/11/09 02:53:04;;;;;;;4.15;2.20;;;14.20;99.90;;;;;;5011247;28;20224;-78
2022/11/09 02:55:32;;;;;;;4.05;2.20;;;14.20;99.90;;;;;;5014652;28;20582;-77
2022/11/09 02:57:59;;;;;;;2.22;2.03;;;14.20;99.90;;;;;;5014760;28;20697;-75
2022/11/09 03:00:26;;;;;;;4.90;2.95;;;14.20;99.90;;;;;;5009224;28;20201;-77
2022/11/09 03:02:52;;;;;;;5.15;2.28;;;14.20;99.90;;;;;;5015808;28;20212;-78
2022/11/09 03:05:19;;;;;;;4.07;3.38;;;14.20;99.90;;;;;;5015497;28;20718;-77
2022/11/09 03:07:46;;;;;;;8.35;2.70;;;14.30;99.90;;;;;;5014400;28;20289;-78
2022/11/09 03:10:13;;;;;;;4.05;2.15;;;14.30;99.90;;;;;;5013348;28;20210;-77
2022/11/09 03:12:41;;;;;;;2.78;2.00;;;14.30;99.90;;;;;;5015139;28;20313;-78
2022/11/09 03:15:09;;;;;;;4.72;1.88;;;14.30;99.90;;;;;;5014563;28;20252;-78
2022/11/09 03:17:36;;;;;;;3.20;2.28;;;14.20;99.90;;;;;;5010078;28;20303;-76
2022/11/09 03:20:04;;;;;;;2.63;1.88;;;14.20;99.90;;;;;;5007603;28;20206;-77
2022/11/09 03:22:30;;;;;;;4.97;2.25;;;14.10;99.90;;;;;;5011784;28;20296;-76
2022/11/09 03:24:57;;;;;;;2.80;2.45;;;14.00;99.90;;;;;;5013943;28;20720;-77
2022/11/09 03:27:24;;;;;;;5.50;2.42;;;14.10;99.90;;;;;;5016750;28;20724;-77
2022/11/09 03:29:52;;;;;;;4.57;2.35;;;14.10;99.90;;;;;;5017373;28;20308;-76
2022/11/09 03:32:19;;;;;;;3.15;2.25;;;14.20;99.90;;;;;;5015852;28;20205;-75
2022/11/09 03:34:46;;;;;;;3.45;2.00;;;14.10;99.90;;;;;;5016267;28;20317;-76
2022/11/09 03:37:13;;;;;;;3.97;1.85;;;14.10;99.90;;;;;;5022578;28;20301;-77
2022/11/09 03:39:40;;;;;;;5.15;2.22;;;14.10;99.90;;;;;;5013874;28;20292;-77
2022/11/09 03:42:06;;;;;;;11.60;3.78;;;14.10;99.90;;;;;;5013656;28;20219;-77
2022/11/09 03:44:33;;;;;;;3.90;2.35;;;14.00;99.90;;;;;;5014877;28;20252;-77
2022/11/09 03:47:01;;;;;;;3.35;2.10;;;14.00;99.90;;;;;;5013938;28;20207;-77
2022/11/09 03:49:28;;;;;;;4.15;2.25;;;14.10;99.90;;;;;;5016345;28;20256;-78
2022/11/09 03:51:55;;;;;;;3.15;2.13;;;14.00;99.90;;;;;;5004835;28;20209;-77
2022/11/09 03:54:22;;;;;;;4.13;2.40;;;14.20;99.90;;;;;;5014359;28;20231;-77
2022/11/09 03:56:49;;;;;;;5.55;2.47;;;14.20;99.90;;;;;;5013053;28;20205;-77
2022/11/09 03:59:15;;;;;;;3.35;2.05;;;14.20;99.90;;;;;;5014902;28;20193;-77
2022/11/09 04:01:42;;;;;;;4.05;2.10;;;14.20;99.90;;;;;;5011678;28;20597;-77
2022/11/09 04:04:10;;;;;;;4.03;2.33;;;14.30;99.90;;;;;;5014652;28;20221;-77
2022/11/09 04:06:37;;;;;;;3.75;1.92;;;14.20;99.90;;;;;;5013547;28;20235;-77
2022/11/09 04:09:04;;;;;;;4.32;3.30;;;14.10;99.90;;;;;;5015927;28;20293;-78
2022/11/09 04:11:31;;;;;;;4.20;2.15;;;14.10;99.90;;;;;;5015045;28;20359;-77
2022/11/09 04:13:58;;;;;;;7.25;3.00;;;14.10;99.90;;;;;;5016451;28;20311;-76
2022/11/09 04:16:24;;;;;;;3.65;2.30;;;14.10;99.90;;;;;;5022301;28;20206;-76
2022/11/09 04:18:51;;;;;;;4.03;2.30;;;14.20;99.90;;;;;;5017030;28;20294;-76
2022/11/09 04:21:19;;;;;;;5.60;2.50;;;14.20;99.90;;;;;;5010868;28;20206;-77
2022/11/09 04:23:48;;;;;;;4.82;2.20;;;14.10;99.90;;;;;;5017900;28;20230;-76
2022/11/09 04:26:15;;;;;;;3.42;2.60;;;14.20;99.90;;;;;;5020052;28;20203;-77
2022/11/09 04:28:41;;;;;;;2.70;1.65;;;14.20;99.90;;;;;;5025244;28;20273;-77
2022/11/09 04:31:08;;;;;;;3.67;2.10;;;14.10;99.90;;;;;;5035325;28;20242;-78
2022/11/09 04:33:35;;;;;;;3.47;2.47;;;14.10;99.90;;;;;;5025160;28;20245;-77
2022/11/09 04:36:10;;;;;;;2.40;1.90;;;14.10;99.90;;;;;;5036326;28;20238;-77
2022/11/09 04:38:38;;;;;;;3.05;1.85;;;14.20;99.90;;;;;;5036579;28;20189;-78
2022/11/09 04:41:07;;;;;;;5.65;2.20;;;14.30;99.90;;;;;;5036639;28;20194;-77
2022/11/09 04:43:34;;;;;;;4.50;2.55;;;14.30;99.90;;;;;;5046740;28;20240;-77
2022/11/09 04:46:02;;;;;;;4.68;2.00;;;14.40;99.90;;;;;;5037069;28;20236;-77
2022/11/09 04:48:29;;;;;;;4.97;2.20;;;14.40;99.90;;;;;;5046668;28;20230;-78
2022/11/09 04:51:00;;;;;;;3.03;2.03;;;14.40;99.90;;;;;;5038267;28;20267;-77
2022/11/09 04:53:28;;;;;;;4.72;2.25;;;14.50;99.90;;;;;;5039330;28;20282;-77
2022/11/09 04:55:56;;;;;;;2.83;1.90;;;14.60;99.90;;;;;;5040405;28;20263;-78
2022/11/09 04:58:24;;;;;;;2.10;1.85;;;14.60;99.90;;;;;;5039028;28;20290;-78
2022/11/09 05:00:51;;;;;;;6.40;1.80;;;14.60;99.90;;;;;;5035495;28;20227;-78
2022/11/09 05:03:18;;;;;;;2.35;1.70;;;14.60;99.90;;;;;;5038746;28;20249;-77
2022/11/09 05:05:45;;;;;;;2.17;1.73;;;14.50;99.90;;;;;;5048904;28;20217;-77
2022/11/09 05:08:12;;;;;;;2.50;1.90;;;14.40;99.90;;;;;;5045910;28;20236;-79
2022/11/09 05:10:39;;;;;;;3.65;1.88;;;14.40;99.90;;;;;;5026623;28;20312;-75
2022/11/09 05:13:09;;;;;;;2.58;1.75;;;14.30;99.90;;;;;;5021604;28;20308;-77
2022/11/09 05:15:37;;;;;;;3.45;1.70;;;14.30;99.90;;;;;;5016176;28;20272;-78
2022/11/09 05:18:05;;;;;;;3.35;2.13;;;14.20;99.90;;;;;;5018310;28;20300;-78
2022/11/09 05:20:31;;;;;;;4.07;1.85;;;14.20;99.90;;;;;;5009566;28;20228;-78
2022/11/09 05:25:43;;;;;;;2.92;2.03;;;14.20;99.90;;;;;;5011596;28;20713;-78
2022/11/09 05:28:12;;;;;;;2.60;1.48;;;14.20;99.90;;;;;;5022148;28;20201;-77
2022/11/09 05:30:39;;;;;;;3.00;1.50;;;14.20;99.90;;;;;;5015860;28;20321;-76
2022/11/09 05:33:06;;;;;;;3.25;2.00;;;14.20;99.90;;;;;;5016125;28;20241;-77
2022/11/09 05:35:33;;;;;;;2.30;2.10;;;14.30;99.90;;;;;;5010840;28;20205;-77
2022/11/09 05:38:00;;;;;;;3.47;1.80;;;14.20;99.90;;;;;;5023992;28;20666;-77
2022/11/09 05:40:27;;;;;;;4.28;1.98;;;14.10;99.90;;;;;;5006877;28;20209;-77
2022/11/09 05:42:55;;;;;;;4.47;1.95;;;14.00;99.90;;;;;;5014644;28;20635;-78
2022/11/09 05:45:24;;;;;;;5.43;1.95;;;14.10;99.90;;;;;;5016542;28;20239;-77
2022/11/09 05:47:51;;;;;;;2.65;1.83;;;14.10;99.90;;;;;;5012614;28;20216;-77
2022/11/09 05:50:18;;;;;;;3.40;1.80;;;14.10;99.90;;;;;;5014779;28;20596;-78
2022/11/09 05:52:45;;;;;;;3.17;1.98;;;14.00;99.90;;;;;;5016066;28;20232;-77
2022/11/09 05:55:12;;;;;;;2.90;2.05;;;14.10;99.90;;;;;;5016817;28;20263;-77
2022/11/09 05:57:39;;;;;;;4.45;2.30;;;14.10;99.90;;;;;;5015803;28;20200;-77
2022/11/09 06:00:07;;;;;;;4.15;2.00;;;14.10;99.90;;;;;;5017030;28;20224;-76
2022/11/09 06:02:36;;;;;;;7.30;2.20;;;14.10;99.90;;;;;;5015551;28;20205;-77
2022/11/09 06:05:03;;;;;;;3.30;2.15;;;14.10;99.90;;;;;;5016014;28;20225;-76
2022/11/09 06:07:29;;;;;;;2.80;1.90;;;14.10;99.90;;;;;;5026079;28;20231;-77
2022/11/09 06:09:56;;;;;;;3.80;2.80;;;14.00;99.90;;;;;;5034314;28;20248;-77
2022/11/09 06:12:23;;;;;;;2.88;1.85;;;14.10;99.90;;;;;;5040296;28;20221;-77
2022/11/09 06:14:50;;;;;;;4.13;1.55;;;14.00;99.90;;;;;;5037542;28;20282;-78
2022/11/09 06:17:17;;;;;;;2.38;1.70;;;14.00;99.90;;;;;;5043364;28;20201;-78
2022/11/09 06:19:45;;;;;;;5.10;1.80;;;14.00;99.90;;;;;;5040548;28;20241;-78
2022/11/09 06:22:12;;;;;;;2.85;1.80;;;14.00;99.90;;;;;;5028284;28;20229;-78
2022/11/09 06:24:39;;;;;;;4.05;1.73;;;14.00;99.90;;;;;;5021442;28;20257;-77
2022/11/09 06:27:06;;;;;;;3.88;2.50;;;14.00;99.90;;;;;;5029373;28;20245;-79
2022/11/09 06:29:32;;;;;;;3.58;2.10;;;14.00;99.90;;;;;;5024296;28;20229;-76
2022/11/09 06:32:00;;;;;;;4.00;2.75;;;14.00;99.90;;;;;;5028345;28;20297;-79
2022/11/09 06:34:26;;;;;;;4.88;2.38;;;14.00;99.90;;;;;;5022363;28;20264;-79
2022/11/09 06:36:55;;;;;;;13.20;2.55;;;14.10;99.90;;;;;;5020239;28;20319;-79
2022/11/09 06:39:22;;;;;;;4.70;2.10;;;14.00;99.90;;;;;;5019762;28;20292;-76
2022/11/09 06:41:48;;;;;;;4.55;2.35;;;14.00;99.90;;;;;;5015379;28;20204;-78
2022/11/09 06:44:15;;;;;;;3.75;2.58;;;14.10;99.90;;;;;;5020151;28;20732;-79
2022/11/09 06:46:44;;;;;;;4.63;2.10;;;14.10;99.90;;;;;;5018697;28;20234;-78
2022/11/09 06:49:11;;;;;;;5.25;2.40;;;14.10;99.90;;;;;;5021156;28;20202;-79
2022/11/09 06:51:37;;;;;;;5.15;2.80;;;14.20;99.90;;;;;;5016795;28;20236;-77
2022/11/09 06:54:13;;;;;;;2.80;2.20;;;14.20;99.90;;;;;;5031814;23;20316;-78
2022/11/09 06:56:40;;;;;;;3.30;2.10;;;14.20;99.90;;;;;;5023122;28;20648;-77
2022/11/09 06:59:07;;;;;;;6.80;2.30;;;14.30;99.90;;;;;;5010122;28;20664;-78
2022/11/09 07:01:36;;;;;;;2.45;2.22;;;14.20;99.90;;;;;;5011320;28;20208;-80
2022/11/09 07:04:03;;;;;;;7.35;2.20;;;14.20;99.90;;;;;;5002320;28;20659;-78
2022/11/09 07:06:31;;;;;;;3.17;2.03;;;14.10;99.90;;;;;;5008573;28;20236;-79
2022/11/09 07:08:58;;;;;;;5.03;2.05;;;14.20;99.90;;;;;;5014285;28;20551;-78
2022/11/09 07:11:27;;;;;;;3.15;1.60;;;14.10;99.90;;;;;;5014501;28;20296;-77
2022/11/09 07:13:54;;;;;;;5.80;1.92;;;14.10;99.90;;;;;;5005734;28;20241;-77
2022/11/09 07:16:21;;;;;;;13.40;4.88;;;14.10;99.90;;;;;;5018047;28;20310;-81
2022/11/09 07:18:48;;;;;;;4.70;2.50;;;14.20;99.90;;;;;;5014400;28;20294;-80
2022/11/09 07:21:15;;;;;;;5.78;1.95;;;14.20;99.90;;;;;;5003919;28;20199;-79
2022/11/09 07:23:42;;;;;;;4.88;2.10;;;14.30;99.90;;;;;;5015760;28;20209;-77
2022/11/09 07:26:09;;;;;;;3.15;2.13;;;14.30;99.90;;;;;;5009953;28;20717;-76
2022/11/09 07:28:38;;;;;;;5.47;2.42;;;14.20;99.90;;;;;;5016642;28;20200;-77
2022/11/09 07:31:05;;;;;;;6.40;2.80;;;14.30;99.90;;;;;;5007285;28;20209;-76
2022/11/09 07:33:32;;;;;;;5.18;2.90;;;14.30;99.90;;;;;;5015430;28;20628;-78
2022/11/09 07:35:59;;;;;;;7.40;2.70;;;14.30;99.90;;;;;;5009896;28;20205;-76
2022/11/09 07:38:29;;;;;;;10.50;2.50;;;14.30;99.90;;;;;;5009574;28;20201;-77
2022/11/09 07:40:59;;;;;;;3.75;1.90;;;14.30;99.90;;;;;;5020605;28;20279;-78
2022/11/09 07:43:26;;;;;;;3.63;1.95;;;14.30;99.90;;;;;;5011351;28;20197;-76
2022/11/09 07:45:55;;;;;;;4.93;2.50;;;14.50;99.90;;;;;;5026800;28;20642;-76
2022/11/09 07:48:28;;;;;;;8.73;3.00;;;15.00;99.90;;;;;;5014364;28;20209;-76
2022/11/09 07:50:56;;;;;;;8.43;4.43;;;15.30;99.90;;;;;;5005896;28;20474;-76
2022/11/09 07:53:23;;;;;;;7.53;3.03;;;15.30;99.90;;;;;;5012376;28;20448;-77
2022/11/09 07:55:57;;;;;;;5.95;2.42;;;15.50;99.90;;;;;;5011932;28;20220;-78
2022/11/09 07:58:24;;;;;;;12.63;2.70;;;15.90;99.90;;;;;;5018420;28;20215;-78
2022/11/09 08:00:51;;;;;;;5.40;1.97;;;16.10;99.90;;;;;;5005255;28;20452;-79
2022/11/09 08:03:20;;;;;;;4.33;2.40;;;16.30;99.90;;;;;;5011168;28;20964;-78
2022/11/09 08:05:48;;;;;;;6.07;2.60;;;16.30;99.90;;;;;;5008740;28;20825;-77
2022/11/09 08:08:15;;;;;;;8.00;2.30;;;16.70;99.90;;;;;;5016376;28;20467;-76
2022/11/09 08:10:43;;;;;;;10.03;3.57;;;17.10;99.90;;;;;;5012977;28;20527;-78
2022/11/09 08:13:12;;;;;;;8.53;2.67;;;17.30;99.90;;;;;;5014050;28;20454;-75
2022/11/09 08:15:40;;;;;;;6.20;2.80;;;17.40;99.90;;;;;;5012711;28;20889;-76
2022/11/09 08:18:10;;;;;;;9.97;2.50;;;17.20;99.90;;;;;;5012020;28;20499;-77
2022/11/09 08:20:38;;;;;;;7.10;2.00;;;17.10;99.90;;;;;;5012843;28;20448;-77
2022/11/09 08:23:06;;;;;;;5.67;2.43;;;17.50;99.90;;;;;;5012751;28;20448;-77
2022/11/09 08:25:34;;;;;;;6.80;2.50;;;18.40;99.90;;;;;;5011020;28;21019;-77
2022/11/09 08:28:02;;;;;;;3.67;2.47;;;19.20;99.90;;;;;;5012640;28;20506;-76
2022/11/09 08:30:29;;;;;;;6.93;2.17;;;20.50;99.90;;;;;;5015008;28;20501;-76
2022/11/09 08:32:56;;;;;;;6.90;2.10;;;21.10;98.30;;;;;;5019147;28;20477;-77
2022/11/09 08:35:24;;;;;;;7.47;1.77;;;21.20;96.70;;;;;;5023789;28;20444;-76
2022/11/09 08:37:55;;;;;;;3.10;1.63;;;21.10;96.40;;;;;;5023402;28;20459;-74
2022/11/09 08:40:24;;;;;;;6.90;2.43;;;20.00;96.40;;;;;;5014107;28;20448;-77
2022/11/09 08:42:51;;;;;;;10.33;2.67;;;19.90;98.00;;;;;;5010815;28;20482;-78
2022/11/09 08:45:19;;;;;;;5.23;1.70;;;20.00;98.70;;;;;;5025588;28;20486;-75
2022/11/09 08:47:46;;;;;;;4.53;2.07;;;20.40;98.60;;;;;;5021931;28;20573;-78
2022/11/09 08:50:13;;;;;;;5.90;2.20;;;20.40;97.30;;;;;;5000913;28;20458;-80
2022/11/09 08:52:41;;;;;;;14.43;2.87;;;20.70;97.00;;;;;;5022373;28;20600;-82
2022/11/09 08:55:10;;;;;;;4.83;2.17;;;21.70;96.20;;;;;;5015308;28;20539;-81
2022/11/09 08:57:37;;;;;;;6.37;2.07;;;21.10;95.00;;;;;;5008222;28;20527;-81
2022/11/09 09:00:05;;;;;;;6.53;2.50;;;21.00;95.40;;;;;;4998577;28;20839;-81
2022/11/09 09:02:33;;;;;;;8.03;1.93;;;20.60;96.00;;;;;;5009494;28;20444;-82
2022/11/09 09:05:00;;;;;;;5.33;1.70;;;20.00;96.90;;;;;;5013653;28;20471;-78
2022/11/09 09:07:27;;;;;;;7.60;1.80;;;20.30;97.10;;;;;;5009286;28;21024;-80
2022/11/09 09:09:55;;;;;;;6.03;2.47;;;20.70;96.40;;;;;;5011916;28;20447;-79
2022/11/09 09:12:23;;;;;;;17.63;2.67;;;20.30;96.40;;;;;;5013164;28;20497;-81
2022/11/09 09:14:50;;;;;;;4.80;2.30;;;20.00;97.10;;;;;;5010393;28;20543;-80
2022/11/09 09:17:17;;;;;;;7.93;1.83;;;19.90;97.40;;;;;;5014951;28;20476;-80
2022/11/09 09:19:45;;;;;;;6.17;2.20;;;19.70;97.60;;;;;;5014944;28;20547;-81
2022/11/09 09:22:12;;;;;;;5.50;2.00;;;18.90;98.00;;;;;;5008487;28;20440;-81
2022/11/09 09:24:46;;;;;;;8.37;2.10;;;18.20;99.90;;;;;;5025994;28;20445;-76
2022/11/09 09:27:13;;;;;;;6.00;2.40;;;18.20;99.90;;;;;;5012493;28;20474;-81
2022/11/09 09:29:42;;;;;;;7.53;2.30;;;18.00;99.90;;;;;;5019156;28;20482;-77
2022/11/09 09:32:09;;;;;;;10.43;3.33;;;17.50;99.90;;;;;;5027964;28;20472;-75
2022/11/09 09:34:36;;;;;;;9.53;2.50;;;17.50;99.90;;;;;;5025471;28;20449;-77
2022/11/09 09:37:03;;;;;;;5.97;2.47;;;17.30;99.90;;;;;;5010408;28;20543;-77
2022/11/09 09:39:31;;;;;;;8.90;1.80;;;16.90;99.90;;;;;;5010883;28;20534;-78
2022/11/09 09:42:02;;;;;;;7.57;2.90;;;16.60;99.90;;;;;;5006908;28;20447;-79
2022/11/09 09:44:33;;;;;;;7.70;1.97;;;16.70;99.90;;;;;;5001482;28;20588;-79
2022/11/09 09:47:10;;;;;;;9.97;2.90;;;17.00;99.90;;;;;;5014784;28;20471;-81
2022/11/09 09:49:40;;;;;;;5.43;2.40;;;17.20;99.90;;;;;;5004164;28;20480;-77
2022/11/09 09:52:18;;;;;;;9.90;2.70;;;17.50;99.90;;;;;;5005411;28;20483;-78
2022/11/09 09:54:52;;;;;;;4.80;1.80;;;17.50;99.90;;;;;;4994816;28;20543;-77
2022/11/09 09:57:21;;;;;;;5.20;2.67;;;17.30;99.90;;;;;;5005410;28;20498;-74
2022/11/09 09:59:50;;;;;;;8.00;1.77;;;17.50;99.90;;;;;;5006278;28;20503;-78
2022/11/09 10:02:23;;;;;;;5.27;1.70;;;17.20;99.90;;;;;;5007536;28;20440;-78
2022/11/09 10:04:51;;;;;;;6.90;2.13;;;17.20;99.90;;;;;;5023766;28;20460;-82
2022/11/09 10:07:33;;;;;;;11.53;1.93;;;17.50;99.90;;;;;;5015442;28;20496;-76
2022/11/09 10:10:17;;;;;;;6.43;2.87;;;17.50;99.90;;;;;;5014699;28;20538;-82
2022/11/09 10:13:12;;;;;;;19.77;3.60;;;17.70;99.90;;;;;;5017504;28;21202;-82
2022/11/09 10:15:48;;;;;;;6.70;2.37;;;17.50;99.90;;;;;;5017441;28;20487;-79
2022/11/09 10:18:34;;;;;;;11.67;2.50;;;17.40;99.90;;;;;;5014973;28;20488;-79
2022/11/09 10:21:14;;;;;;;8.23;2.23;;;17.40;99.90;;;;;;5018689;28;20464;-80
2022/11/09 10:23:56;;;;;;;5.63;1.63;;;17.40;99.90;;;;;;5032652;28;20454;-78
2022/11/09 10:26:31;;;;;;;18.00;3.50;;;17.40;99.90;;;;;;5036473;28;20490;-80
2022/11/09 10:29:02;;;;;;;5.20;2.23;;;17.20;99.90;;;;;;5021623;28;20472;-79
2022/11/09 10:31:33;;;;;;;5.90;2.90;;;17.20;99.90;;;;;;5010614;28;20574;-81
2022/11/09 10:34:10;;;;;;;6.50;2.07;;;16.80;99.90;;;;;;5012944;28;20448;-83
2022/11/09 10:36:42;;;;;;;7.67;2.50;;;16.70;99.90;;;;;;5001829;28;20565;-82
2022/11/09 10:39:14;;;;;;;5.33;3.00;;;17.00;99.90;;;;;;5013147;28;20529;-83
2022/11/09 10:41:45;;;;;;;7.23;2.13;;;16.70;99.90;;;;;;5011316;28;20475;-81
2022/11/09 10:44:17;;;;;;;8.70;2.50;;;16.60;99.90;;;;;;5014587;28;20463;-78
2022/11/09 10:47:06;;;;;;;13.67;2.20;;;16.50;99.90;;;;;;5026755;28;20470;-83
2022/11/09 10:49:36;;;;;;;12.60;2.70;;;16.60;99.90;;;;;;5017736;28;20525;-80
2022/11/09 10:52:04;;;;;;;8.50;2.57;;;16.70;99.90;;;;;;5010478;28;20505;-78
2022/11/09 10:54:34;;;;;;;6.93;2.10;;;16.80;99.90;;;;;;5009627;28;21041;-79
2022/11/09 10:57:12;;;;;;;6.00;2.13;;;16.40;99.90;;;;;;5012854;28;20484;-82
2022/11/09 10:59:47;;;;;;;10.63;3.23;;;16.20;99.90;;;;;;5022882;28;20463;-80
2022/11/09 11:02:41;;;;;;;6.47;2.30;;;16.10;99.90;;;;;;5003155;28;20501;-80
2022/11/09 11:05:33;;;;;;;6.50;2.53;;;15.70;99.90;;;;;;5018030;28;20448;-80
2022/11/09 11:08:36;;;;;;;9.03;1.87;;;15.60;99.90;;;;;;5021740;28;20481;-82
2022/11/09 11:11:21;;;;;;;15.05;2.72;;;15.80;99.90;;;;;;5032214;28;20495;-79
2022/11/09 11:13:49;;;;;;;8.77;2.08;;;15.60;99.90;;;;;;5035213;28;20406;-78
2022/11/09 11:16:28;;;;;;;4.80;2.40;;;15.70;99.90;;;;;;5026133;28;20237;-76
2022/11/09 11:18:56;;;;;;;7.20;2.30;;;15.90;99.90;;;;;;5005538;28;20195;-78
2022/11/09 11:21:29;;;;;;;7.47;2.00;;;15.80;99.90;;;;;;5016621;28;20496;-77
2022/11/09 11:24:17;;;;;;;4.45;1.50;;;15.90;99.90;;;;;;5005979;28;20202;-77
2022/11/09 11:26:55;;;;;;;10.73;3.00;;;15.90;99.90;;;;;;5008697;28;20291;-80
2022/11/09 11:29:34;;;;;;;7.83;1.67;;;16.00;99.90;;;;;;5007788;28;20498;-77
2022/11/09 11:32:01;;;;;;;7.80;1.93;;;16.00;99.90;;;;;;5014909;28;20470;-80
2022/11/09 11:34:28;;;;;;;18.83;8.83;;;16.00;99.90;;;;;;5010920;28;20452;-79
2022/11/09 11:37:08;;;;;;;11.70;1.97;;;16.00;99.90;;;;;;5013530;28;20541;-77
2022/11/09 11:39:48;;;;;;;10.10;3.20;;;16.00;99.90;;;;;;5023567;28;20423;-79
2022/11/09 11:42:31;;;;;;;4.07;1.97;;;15.90;99.90;;;;;;4992531;28;20484;-79
2022/11/09 11:45:15;;;;;;;8.27;2.07;;;15.80;99.90;;;;;;5009834;28;20454;-79
2022/11/09 11:47:56;;;;;;;7.77;2.27;;;15.80;99.90;;;;;;5009404;28;20578;-80
2022/11/09 11:50:32;;;;;;;6.03;1.92;;;15.80;99.90;;;;;;5006330;28;20515;-80
2022/11/09 11:53:29;;;;;;;6.07;2.60;;;15.80;99.90;;;;;;5003934;28;20690;-77
2022/11/09 11:56:18;;;;;;;13.30;4.73;;;15.80;99.90;;;;;;5010015;28;20457;-76
2022/11/09 11:59:09;;;;;;;4.32;1.83;;;15.80;99.90;;;;;;4989937;28;20463;-78
2022/11/09 12:01:49;;;;;;;7.60;2.20;;;15.80;99.90;;;;;;5009930;28;20208;-76
2022/11/09 12:04:38;;;;;;;10.60;2.50;;;16.00;99.90;;;;;;5009967;28;20465;-77
2022/11/09 12:07:26;;;;;;;6.30;1.80;;;15.90;99.90;;;;;;4992097;28;20284;-75
2022/11/09 12:10:12;;;;;;;5.87;1.73;;;15.90;99.90;;;;;;5035938;28;20443;-77
2022/11/09 12:12:47;;;;;;;7.22;2.00;;;15.90;99.90;;;;;;5016735;28;20486;-78
2022/11/09 12:15:29;;;;;;;6.68;1.95;;;15.80;99.90;;;;;;5008095;28;20309;-75
2022/11/09 12:18:06;;;;;;;5.00;1.50;;;15.80;99.90;;;;;;4987430;28;20255;-79
2022/11/09 12:20:41;;;;;;;11.40;2.00;;;16.00;99.90;;;;;;4997994;28;20458;-77
2022/11/09 12:23:24;;;;;;;8.20;2.17;;;16.10;99.90;;;;;;4992382;28;20257;-79
2022/11/09 12:26:01;;;;;;;17.83;10.70;;;16.20;99.90;;;;;;5013494;28;20454;-77
2022/11/09 12:28:55;;;;;;;6.90;3.00;;;16.10;99.90;;;;;;5000677;28;20482;-77
2022/11/09 12:31:32;;;;;;;6.07;1.70;;;16.20;99.90;;;;;;5009230;28;20521;-77
2022/11/09 12:34:02;;;;;;;6.30;2.23;;;16.10;99.90;;;;;;5011606;28;20455;-77
2022/11/09 12:36:38;;;;;;;6.53;2.10;;;16.10;99.90;;;;;;5001371;28;20886;-77
2022/11/09 12:39:12;;;;;;;4.10;1.60;;;16.10;99.90;;;;;;5014195;28;20786;-76
2022/11/09 12:41:42;;;;;;;3.58;1.35;;;16.20;99.90;;;;;;5009733;28;20491;-77
2022/11/09 12:44:14;;;;;;;5.40;1.67;;;16.00;99.90;;;;;;5014241;28;20217;-78
2022/11/09 12:46:46;;;;;;;4.28;1.63;;;16.00;99.90;;;;;;5004189;28;20592;-77
2022/11/09 12:49:30;;;;;;;6.57;1.50;;;15.90;99.90;;;;;;5004543;28;20633;-77
2022/11/09 12:51:57;;;;;;;3.58;1.13;;;16.10;99.90;;;;;;5007511;28;20558;-75
2022/11/09 12:54:25;;;;;;;4.37;1.97;;;16.20;99.90;;;;;;5006423;28;20242;-77
2022/11/09 12:56:56;;;;;;;5.37;2.20;;;16.30;99.90;;;;;;5000945;28;20468;-78
2022/11/09 12:59:45;;;;;;;5.93;2.07;;;16.40;99.90;;;;;;5015560;28;20478;-78
2022/11/09 13:02:31;;;;;;;4.30;1.80;;;16.20;99.90;;;;;;5016018;28;20469;-76
2022/11/09 13:05:00;;;;;;;8.00;2.03;;;16.20;99.90;;;;;;5031510;28;20458;-78